Time;durP1;ratioP1;P1;durP2;ratioP2;P2;SDS_P1;SDS_P2;PMS_P1;PMS_P2;Temp;Humidity;BMP_temperature;BMP_pressure;BME280_temperature;BME280_humidity;BME280_pressure;Samples;Min_cycle;Max_cycle;Signal;HPM_P1;HPM_P2
2023/05/10 00:01:23;;;;;;;4.80;2.67;;;13.10;99.90;;;;;;5056258;28;20049;-63
2023/05/10 00:03:49;;;;;;;5.63;2.38;;;13.10;99.90;;;;;;5055483;28;20394;-63
2023/05/10 00:06:14;;;;;;;6.25;2.90;;;13.10;99.90;;;;;;5054876;28;20048;-63
2023/05/10 00:08:40;;;;;;;4.35;2.38;;;13.00;99.90;;;;;;5054872;28;20095;-63
2023/05/10 00:11:05;;;;;;;4.20;2.72;;;14.60;99.90;;;;;;5054841;28;20404;-63
2023/05/10 00:13:31;;;;;;;4.07;2.40;;;12.90;99.90;;;;;;5054716;28;20036;-62
2023/05/10 00:15:57;;;;;;;5.93;2.70;;;12.90;99.90;;;;;;5054515;28;20174;-63
2023/05/10 00:18:23;;;;;;;4.25;2.80;;;12.80;99.90;;;;;;5054749;28;20116;-63
2023/05/10 00:20:48;;;;;;;3.97;2.47;;;12.80;99.90;;;;;;5053469;28;20502;-63
2023/05/10 00:23:14;;;;;;;4.85;2.88;;;12.80;99.90;;;;;;5054692;28;20477;-63
2023/05/10 00:25:40;;;;;;;3.88;2.22;;;12.70;99.90;;;;;;5054513;28;20481;-63
2023/05/10 00:28:05;;;;;;;5.53;2.92;;;12.70;99.90;;;;;;5054559;28;20094;-63
2023/05/10 00:30:31;;;;;;;4.38;2.72;;;12.70;99.90;;;;;;5054498;28;20083;-63
2023/05/10 00:32:56;;;;;;;5.88;2.97;;;12.70;99.90;;;;;;5054533;28;20047;-63
2023/05/10 00:35:22;;;;;;;4.18;2.47;;;12.70;99.90;;;;;;5054093;28;20088;-63
2023/05/10 00:37:48;;;;;;;5.32;2.95;;;12.70;99.90;;;;;;5054416;28;20076;-63
2023/05/10 00:40:14;;;;;;;6.18;3.20;;;12.70;99.90;;;;;;5054458;28;20098;-62
2023/05/10 00:42:40;;;;;;;6.38;3.38;;;12.70;99.90;;;;;;5054354;28;20041;-62
2023/05/10 00:45:06;;;;;;;6.35;2.90;;;12.70;99.90;;;;;;5053094;28;20041;-63
2023/05/10 00:47:32;;;;;;;4.25;2.90;;;12.70;99.90;;;;;;5054307;28;20036;-63
2023/05/10 00:50:00;;;;;;;5.72;2.80;;;12.70;99.90;;;;;;5054224;28;20044;-63
2023/05/10 00:52:26;;;;;;;5.32;3.10;;;12.70;99.90;;;;;;5053948;28;20041;-63
2023/05/10 00:54:52;;;;;;;4.43;3.03;;;12.70;99.90;;;;;;5053062;28;20041;-62
2023/05/10 00:57:18;;;;;;;4.82;2.78;;;12.70;99.90;;;;;;5054122;28;20048;-63
2023/05/10 00:59:44;;;;;;;10.05;3.15;;;12.70;99.90;;;;;;5054117;28;20047;-63
2023/05/10 01:02:10;;;;;;;4.32;2.78;;;12.70;99.90;;;;;;5054046;28;20037;-63
2023/05/10 01:04:37;;;;;;;3.92;2.88;;;12.70;99.90;;;;;;5017539;28;1063949;-62
2023/05/10 01:07:03;;;;;;;4.05;2.78;;;12.70;99.90;;;;;;5053388;28;20063;-63
2023/05/10 01:09:28;;;;;;;5.28;3.22;;;12.70;99.90;;;;;;5054994;28;20116;-62
2023/05/10 01:11:54;;;;;;;5.03;3.00;;;12.70;99.90;;;;;;5055010;28;20092;-62
2023/05/10 01:14:21;;;;;;;4.93;3.03;;;12.70;99.90;;;;;;5054943;28;20401;-62
2023/05/10 01:16:48;;;;;;;5.15;2.70;;;12.70;99.90;;;;;;5054520;28;20045;-62
2023/05/10 01:19:25;;;;;;;6.57;3.00;;;12.70;99.90;;;;;;5054570;28;20091;-62
2023/05/10 01:22:08;;;;;;;6.20;3.40;;;12.60;99.90;;;;;;5054771;28;20040;-62
2023/05/10 01:24:59;;;;;;;3.88;2.78;;;12.60;99.90;;;;;;5054659;28;20047;-62
2023/05/10 01:27:58;;;;;;;5.77;3.70;;;12.60;99.90;;;;;;5054683;28;20072;-62
2023/05/10 01:30:43;;;;;;;3.85;2.55;;;12.60;99.90;;;;;;5054590;28;20282;-62
2023/05/10 01:33:14;;;;;;;4.60;2.95;;;12.60;99.90;;;;;;5054288;28;20037;-62
2023/05/10 01:35:43;;;;;;;5.30;2.83;;;12.60;99.90;;;;;;5054440;28;20094;-62
2023/05/10 01:38:21;;;;;;;5.82;3.28;;;12.60;99.90;;;;;;5053129;28;20044;-62
2023/05/10 01:40:51;;;;;;;4.78;2.85;;;12.60;99.90;;;;;;5054333;28;20048;-62
2023/05/10 01:43:28;;;;;;;5.90;3.05;;;12.60;99.90;;;;;;5054356;28;20433;-62
2023/05/10 01:46:10;;;;;;;3.88;2.40;;;12.60;99.90;;;;;;5053442;28;20496;-62
2023/05/10 01:48:47;;;;;;;5.35;2.72;;;12.60;99.90;;;;;;5054226;28;20033;-62
2023/05/10 01:51:16;;;;;;;7.50;3.30;;;12.60;99.90;;;;;;5054221;28;20116;-63
2023/05/10 01:53:44;;;;;;;5.30;2.90;;;12.60;99.90;;;;;;5052824;28;20108;-62
2023/05/10 01:56:12;;;;;;;6.10;3.13;;;12.60;99.90;;;;;;5054111;28;20504;-62
2023/05/10 01:58:40;;;;;;;4.43;2.92;;;13.30;99.90;;;;;;5052751;28;20056;-62
2023/05/10 02:01:08;;;;;;;4.10;2.67;;;12.50;99.90;;;;;;5052417;28;20103;-62
2023/05/10 02:03:35;;;;;;;5.95;3.03;;;12.50;99.90;;;;;;5053751;28;20227;-62
2023/05/10 02:06:03;;;;;;;6.85;3.17;;;14.20;99.90;;;;;;5053828;28;20056;-62
2023/05/10 02:08:29;;;;;;;5.32;2.85;;;12.50;99.90;;;;;;5053665;28;20041;-62
2023/05/10 02:10:56;;;;;;;5.28;2.88;;;12.50;99.90;;;;;;5052622;28;20045;-62
2023/05/10 02:13:24;;;;;;;4.65;2.90;;;13.10;99.90;;;;;;5053560;28;20146;-62
2023/05/10 02:15:50;;;;;;;6.50;3.08;;;12.50;99.90;;;;;;5053472;28;20515;-62
2023/05/10 02:18:17;;;;;;;4.53;3.05;;;12.50;99.90;;;;;;5053526;28;20452;-64
2023/05/10 02:20:46;;;;;;;5.25;3.20;;;12.50;99.90;;;;;;5053675;28;20421;-62
2023/05/10 02:23:13;;;;;;;4.75;3.05;;;12.50;99.90;;;;;;5052469;28;20135;-62
2023/05/10 02:25:39;;;;;;;5.28;3.03;;;13.20;99.90;;;;;;5053220;28;20143;-63
2023/05/10 02:28:06;;;;;;;10.85;2.95;;;12.50;99.90;;;;;;5053330;28;20033;-63
2023/05/10 02:30:34;;;;;;;8.25;3.40;;;12.50;99.90;;;;;;5053470;28;20037;-62
2023/05/10 02:33:01;;;;;;;7.32;3.30;;;12.50;99.90;;;;;;5053492;28;20448;-62
2023/05/10 02:35:28;;;;;;;6.63;3.40;;;12.50;99.90;;;;;;5053464;28;20064;-62
2023/05/10 02:37:54;;;;;;;5.40;3.30;;;12.40;99.90;;;;;;5053429;28;20086;-63
2023/05/10 02:40:21;;;;;;;6.07;3.60;;;12.50;99.90;;;;;;5053351;28;20073;-62
2023/05/10 02:42:50;;;;;;;4.70;2.97;;;12.40;99.90;;;;;;5051794;28;20080;-62
2023/05/10 02:45:23;;;;;;;5.28;3.20;;;12.40;99.90;;;;;;5053188;28;20041;-62
2023/05/10 02:47:49;;;;;;;5.80;2.72;;;12.40;99.90;;;;;;5053208;28;20041;-62
2023/05/10 02:50:15;;;;;;;5.75;3.17;;;12.40;99.90;;;;;;5052930;28;20037;-63
2023/05/10 02:52:45;;;;;;;7.18;3.63;;;12.40;99.90;;;;;;5053135;28;20033;-63
2023/05/10 02:55:15;;;;;;;6.50;3.33;;;12.40;99.90;;;;;;5053170;28;20051;-62
2023/05/10 02:57:50;;;;;;;8.57;2.97;;;12.40;99.90;;;;;;5052782;28;20083;-62
2023/05/10 03:00:16;;;;;;;6.40;3.67;;;12.40;99.90;;;;;;5053092;28;20041;-62
2023/05/10 03:02:42;;;;;;;5.45;3.13;;;12.40;99.90;;;;;;5052766;28;20036;-62
2023/05/10 03:05:07;;;;;;;8.10;3.60;;;12.40;99.90;;;;;;5052578;28;20102;-62
2023/05/10 03:07:33;;;;;;;5.43;3.22;;;12.40;99.90;;;;;;5053006;28;20525;-62
2023/05/10 03:10:00;;;;;;;6.88;3.47;;;12.40;99.90;;;;;;5052964;28;20039;-62
2023/05/10 03:13:00;;;;;;;4.80;3.30;;;12.30;99.90;;;;;;5052916;28;20033;-62
2023/05/10 03:15:53;;;;;;;6.70;3.72;;;12.40;99.90;;;;;;5052686;28;20049;-62
2023/05/10 03:18:23;;;;;;;6.45;3.75;;;12.40;99.90;;;;;;5051623;28;20045;-63
2023/05/10 03:20:51;;;;;;;4.72;3.30;;;12.40;99.90;;;;;;5052858;28;20045;-63
2023/05/10 03:23:28;;;;;;;4.80;3.17;;;12.40;99.90;;;;;;5052944;28;20060;-63
2023/05/10 03:25:54;;;;;;;5.50;3.15;;;12.30;99.90;;;;;;5052528;28;20048;-62
2023/05/10 03:28:21;;;;;;;4.47;2.60;;;12.30;99.90;;;;;;5052791;28;20048;-63
2023/05/10 03:30:47;;;;;;;6.20;3.40;;;12.40;99.90;;;;;;5052441;28;20076;-63
2023/05/10 03:33:13;;;;;;;7.32;4.03;;;12.40;99.90;;;;;;5052741;28;20032;-63
2023/05/10 03:35:39;;;;;;;5.32;3.17;;;12.30;99.90;;;;;;5052495;28;20171;-63
2023/05/10 03:38:04;;;;;;;7.78;4.13;;;12.30;99.90;;;;;;5052741;28;20072;-63
2023/05/10 03:40:31;;;;;;;6.57;3.63;;;12.40;99.90;;;;;;5052387;28;20076;-63
2023/05/10 03:42:58;;;;;;;7.65;3.90;;;12.40;99.90;;;;;;5052687;28;20052;-64
2023/05/10 03:45:24;;;;;;;7.60;3.58;;;12.40;99.90;;;;;;5052559;28;20075;-62
2023/05/10 03:47:50;;;;;;;5.00;3.25;;;12.30;99.90;;;;;;5052613;28;20068;-63
2023/05/10 03:50:15;;;;;;;7.40;3.83;;;12.30;99.90;;;;;;5052594;28;20095;-63
2023/05/10 03:52:41;;;;;;;7.20;4.00;;;12.30;99.90;;;;;;5052272;28;20037;-63
2023/05/10 03:55:07;;;;;;;6.88;3.17;;;12.30;99.90;;;;;;5051110;28;20047;-63
2023/05/10 03:57:33;;;;;;;9.23;4.30;;;12.30;99.90;;;;;;5052509;28;20033;-63
2023/05/10 03:59:59;;;;;;;7.57;3.63;;;12.30;99.90;;;;;;5051211;28;20037;-63
2023/05/10 04:02:25;;;;;;;5.38;3.17;;;12.30;99.90;;;;;;5052466;28;20369;-63
2023/05/10 04:04:50;;;;;;;7.97;3.45;;;12.30;99.90;;;;;;5052091;28;20049;-63
2023/05/10 04:07:16;;;;;;;5.50;3.67;;;13.00;99.90;;;;;;5052357;28;20060;-64
2023/05/10 04:09:42;;;;;;;5.90;3.78;;;13.10;99.90;;;;;;5052599;28;20048;-63
2023/05/10 04:12:07;;;;;;;6.97;4.10;;;13.00;99.90;;;;;;5056101;28;20033;-63
2023/05/10 04:14:33;;;;;;;5.70;3.30;;;12.30;99.90;;;;;;5056042;28;20112;-64
2023/05/10 04:16:59;;;;;;;6.25;3.97;;;13.10;99.90;;;;;;5055924;28;20045;-63
2023/05/10 04:19:28;;;;;;;6.22;3.40;;;12.10;99.90;;;;;;5055680;28;20392;-64
2023/05/10 04:21:54;;;;;;;7.00;3.85;;;12.30;99.90;;;;;;5055971;28;20080;-63
2023/05/10 04:24:19;;;;;;;8.50;3.17;;;12.30;99.90;;;;;;5055875;28;20489;-63
2023/05/10 04:26:45;;;;;;;4.68;3.00;;;12.30;99.90;;;;;;5054500;28;20052;-63
2023/05/10 04:29:11;;;;;;;6.22;2.95;;;12.30;99.90;;;;;;5055848;28;20120;-64
2023/05/10 04:31:36;;;;;;;5.90;3.05;;;12.30;99.90;;;;;;5055654;28;20643;-66
2023/05/10 04:34:02;;;;;;;5.65;2.83;;;12.30;99.90;;;;;;5055687;28;20099;-63
2023/05/10 04:36:28;;;;;;;6.80;3.40;;;12.30;99.90;;;;;;5055667;28;20550;-64
2023/05/10 04:38:54;;;;;;;5.82;3.88;;;12.30;99.90;;;;;;5055665;28;20053;-64
2023/05/10 04:41:20;;;;;;;5.22;3.08;;;12.30;99.90;;;;;;5055549;28;20037;-64
2023/05/10 04:43:46;;;;;;;5.60;2.92;;;12.30;99.90;;;;;;5055201;28;20080;-63
2023/05/10 04:46:12;;;;;;;3.90;2.60;;;12.30;99.90;;;;;;5055419;28;20045;-63
2023/05/10 04:48:37;;;;;;;4.10;2.47;;;12.30;99.90;;;;;;5055354;28;20346;-63
2023/05/10 04:51:03;;;;;;;3.55;2.53;;;12.30;99.90;;;;;;5055320;28;20484;-64
2023/05/10 04:53:29;;;;;;;4.30;2.72;;;12.20;99.90;;;;;;5055368;28;20032;-63
2023/05/10 04:55:55;;;;;;;4.50;2.35;;;12.30;99.90;;;;;;5055290;28;20098;-64
2023/05/10 04:58:21;;;;;;;3.83;2.33;;;12.30;99.90;;;;;;5055195;28;20128;-63
2023/05/10 05:00:46;;;;;;;5.00;2.35;;;12.30;99.90;;;;;;5055138;28;20037;-64
2023/05/10 05:03:12;;;;;;;3.80;2.53;;;12.30;99.90;;;;;;5054915;28;20091;-64
2023/05/10 05:05:38;;;;;;;4.32;2.38;;;12.30;99.90;;;;;;5054992;28;20068;-64
2023/05/10 05:08:03;;;;;;;3.90;2.17;;;12.30;99.90;;;;;;5055087;28;20374;-63
2023/05/10 05:10:29;;;;;;;3.03;2.10;;;12.20;99.90;;;;;;5054978;28;20488;-64
2023/05/10 05:12:55;;;;;;;5.55;2.55;;;12.30;99.90;;;;;;5053398;28;20049;-64
2023/05/10 05:15:21;;;;;;;3.90;2.25;;;12.30;99.90;;;;;;5054922;28;20047;-64
2023/05/10 05:17:47;;;;;;;3.00;2.20;;;12.30;99.90;;;;;;5054781;28;20190;-63
2023/05/10 05:20:12;;;;;;;7.00;2.35;;;12.30;99.90;;;;;;5052983;28;20070;-64
2023/05/10 05:22:38;;;;;;;4.03;2.42;;;12.30;99.90;;;;;;5054080;28;20045;-64
2023/05/10 05:25:05;;;;;;;3.30;2.25;;;12.40;99.90;;;;;;5054710;28;20046;-64
2023/05/10 05:27:31;;;;;;;4.97;2.28;;;12.30;99.90;;;;;;5054609;28;20064;-64
2023/05/10 05:29:57;;;;;;;3.65;2.45;;;12.30;99.90;;;;;;5054318;28;20069;-64
2023/05/10 05:32:23;;;;;;;2.20;1.92;;;12.30;99.90;;;;;;5054529;28;20033;-67
2023/05/10 05:34:49;;;;;;;3.58;2.30;;;12.80;99.90;;;;;;5054248;28;20542;-66
2023/05/10 05:37:16;;;;;;;2.55;1.83;;;12.30;99.90;;;;;;5054536;28;20033;-65
2023/05/10 05:39:42;;;;;;;3.25;1.70;;;12.30;99.90;;;;;;5054471;28;20580;-63
2023/05/10 05:42:09;;;;;;;2.85;1.83;;;12.30;99.90;;;;;;5054346;28;20077;-66
2023/05/10 05:44:34;;;;;;;2.70;1.63;;;12.30;99.90;;;;;;5053875;28;20037;-66
2023/05/10 05:47:00;;;;;;;3.67;2.05;;;12.30;99.90;;;;;;5054136;28;20056;-63
2023/05/10 05:49:26;;;;;;;2.30;1.55;;;13.20;99.90;;;;;;5054175;28;20039;-69
2023/05/10 05:51:51;;;;;;;3.53;1.73;;;12.30;99.90;;;;;;5052648;28;20037;-65
2023/05/10 05:54:17;;;;;;;3.47;2.00;;;12.30;99.90;;;;;;5054132;28;20037;-64
2023/05/10 05:56:44;;;;;;;3.08;1.88;;;12.30;99.90;;;;;;5052532;28;20041;-65
2023/05/10 05:59:10;;;;;;;2.25;1.50;;;12.30;99.90;;;;;;5053729;28;20037;-64
2023/05/10 06:01:35;;;;;;;2.13;1.63;;;12.30;99.90;;;;;;5054045;28;20056;-66
2023/05/10 06:04:01;;;;;;;1.83;1.50;;;12.70;99.90;;;;;;5053578;28;20053;-63
2023/05/10 06:06:27;;;;;;;2.22;1.48;;;12.30;99.90;;;;;;5053795;28;20456;-65
2023/05/10 06:08:53;;;;;;;1.95;1.30;;;12.30;99.90;;;;;;5052409;28;20068;-67
2023/05/10 06:11:20;;;;;;;2.03;1.40;;;12.30;99.90;;;;;;5053858;28;20041;-67
2023/05/10 06:13:47;;;;;;;2.15;1.50;;;12.30;99.90;;;;;;5052534;28;20178;-64
2023/05/10 06:16:13;;;;;;;3.50;1.25;;;13.50;99.90;;;;;;5053619;28;20507;-64
2023/05/10 06:18:38;;;;;;;2.28;1.27;;;12.30;99.90;;;;;;5053672;28;20041;-63
2023/05/10 06:21:04;;;;;;;2.58;1.25;;;12.30;99.90;;;;;;5053657;28;20051;-63
2023/05/10 06:23:30;;;;;;;2.95;1.48;;;12.30;99.90;;;;;;5052478;28;20033;-63
2023/05/10 06:25:55;;;;;;;1.58;1.10;;;12.30;99.90;;;;;;5053563;28;20051;-63
2023/05/10 06:28:21;;;;;;;2.53;1.30;;;13.60;99.90;;;;;;5053569;28;20468;-64
2023/05/10 06:30:46;;;;;;;1.65;1.20;;;12.30;99.90;;;;;;5053165;28;20045;-63
2023/05/10 06:33:12;;;;;;;1.80;1.10;;;13.30;99.90;;;;;;5052967;28;20029;-63
2023/05/10 06:35:38;;;;;;;1.23;1.00;;;12.30;99.90;;;;;;5051911;28;20043;-63
2023/05/10 06:38:04;;;;;;;1.90;1.10;;;12.30;99.90;;;;;;5053263;28;20041;-63
2023/05/10 06:40:30;;;;;;;1.02;0.90;;;12.20;99.90;;;;;;5053326;28;20043;-63
2023/05/10 06:42:55;;;;;;;2.60;1.00;;;12.30;99.90;;;;;;5053254;28;20045;-64
2023/05/10 06:45:21;;;;;;;1.40;1.00;;;12.30;99.90;;;;;;5053193;28;20048;-64
2023/05/10 06:47:47;;;;;;;1.83;0.90;;;12.30;99.90;;;;;;5053160;28;20450;-63
2023/05/10 06:50:12;;;;;;;1.55;0.98;;;12.30;99.90;;;;;;5052707;28;20396;-63
2023/05/10 06:52:38;;;;;;;1.27;1.00;;;12.40;99.90;;;;;;5053104;28;20044;-63
2023/05/10 06:55:04;;;;;;;3.78;0.93;;;12.30;99.90;;;;;;5052750;28;20039;-64
2023/05/10 06:57:31;;;;;;;1.58;0.93;;;12.40;99.90;;;;;;5052793;28;20481;-63
2023/05/10 07:00:00;;;;;;;1.33;0.90;;;12.30;99.90;;;;;;5051500;28;20044;-64
2023/05/10 07:02:26;;;;;;;1.00;0.88;;;12.30;99.90;;;;;;5052873;28;20080;-63
2023/05/10 07:04:52;;;;;;;0.55;0.47;;;12.30;99.90;;;;;;5052573;28;20076;-63
2023/05/10 07:07:18;;;;;;;0.52;0.40;;;12.30;99.90;;;;;;5052847;28;20036;-63
2023/05/10 07:09:44;;;;;;;0.60;0.50;;;12.30;99.90;;;;;;5052602;28;20047;-63
2023/05/10 07:12:10;;;;;;;0.75;0.22;;;12.30;99.90;;;;;;5051675;28;20496;-63
2023/05/10 07:14:36;;;;;;;0.22;0.22;;;12.30;99.90;;;;;;5052576;28;20099;-63
2023/05/10 07:17:01;;;;;;;0.20;0.20;;;12.30;99.90;;;;;;5052437;28;20488;-63
2023/05/10 07:19:29;;;;;;;0.15;0.15;;;12.30;99.90;;;;;;5052701;28;20056;-63
2023/05/10 07:21:55;;;;;;;0.30;0.30;;;12.20;99.90;;;;;;5052506;28;20090;-64
2023/05/10 07:24:20;;;;;;;1.17;0.30;;;12.30;99.90;;;;;;5051507;28;20037;-64
2023/05/10 07:26:46;;;;;;;0.20;0.20;;;13.70;99.90;;;;;;5052444;28;20040;-63
2023/05/10 07:29:12;;;;;;;0.30;0.30;;;12.20;99.90;;;;;;5051108;28;20042;-63
2023/05/10 07:31:37;;;;;;;0.32;0.30;;;12.30;99.90;;;;;;5052270;28;20372;-63
2023/05/10 07:34:03;;;;;;;0.30;0.30;;;12.30;99.90;;;;;;5051337;28;20397;-63
2023/05/10 07:36:28;;;;;;;0.30;0.20;;;12.30;99.90;;;;;;5052688;28;20040;-63
2023/05/10 07:38:54;;;;;;;1.85;0.50;;;12.40;99.90;;;;;;5052623;28;20043;-63
2023/05/10 07:41:20;;;;;;;0.20;0.20;;;12.40;99.90;;;;;;5052376;28;20397;-63
2023/05/10 07:43:46;;;;;;;0.20;0.20;;;12.40;99.90;;;;;;5051198;28;20091;-63
2023/05/10 07:46:12;;;;;;;0.20;0.20;;;12.40;99.90;;;;;;5056435;28;20451;-63
2023/05/10 07:48:37;;;;;;;0.10;0.10;;;12.40;99.90;;;;;;5056202;28;20051;-63
2023/05/10 07:51:03;;;;;;;0.10;0.10;;;12.50;99.90;;;;;;5056187;28;20396;-63
2023/05/10 07:53:28;;;;;;;0.20;0.20;;;12.50;99.90;;;;;;5056199;28;20037;-63
2023/05/10 07:56:00;;;;;;;0.10;0.10;;;12.60;99.90;;;;;;5056415;28;20040;-63
2023/05/10 07:58:26;;;;;;;0.17;0.17;;;12.70;99.90;;;;;;5056273;28;20115;-63
2023/05/10 08:00:52;;;;;;;0.20;0.20;;;12.70;99.90;;;;;;5056257;28;20037;-65
2023/05/10 08:03:17;;;;;;;0.17;0.17;;;12.70;99.90;;;;;;5055849;28;20491;-64
2023/05/10 08:05:43;;;;;;;0.73;0.45;;;13.20;99.90;;;;;;5056114;28;20045;-63
2023/05/10 08:08:09;;;;;;;0.35;0.35;;;12.80;99.90;;;;;;5056170;28;20031;-63
2023/05/10 08:10:34;;;;;;;0.30;0.30;;;12.80;99.90;;;;;;5056134;28;20061;-63
2023/05/10 08:13:00;;;;;;;0.30;0.30;;;13.80;99.90;;;;;;5056020;28;20037;-63
2023/05/10 08:15:26;;;;;;;0.55;0.43;;;12.70;99.90;;;;;;5056004;28;20040;-64
2023/05/10 08:17:52;;;;;;;0.90;0.55;;;12.70;99.90;;;;;;5055943;28;20087;-63
2023/05/10 08:20:18;;;;;;;1.20;0.73;;;14.50;99.90;;;;;;5055791;28;20088;-63
2023/05/10 08:22:45;;;;;;;1.52;1.00;;;12.70;99.90;;;;;;5054686;28;20044;-63
2023/05/10 08:25:11;;;;;;;1.20;0.90;;;12.60;99.90;;;;;;5055461;28;20048;-63
2023/05/10 08:27:36;;;;;;;1.45;0.80;;;12.60;99.90;;;;;;5055769;28;20045;-63
2023/05/10 08:30:02;;;;;;;1.80;1.05;;;12.70;99.90;;;;;;5055794;28;20400;-63
2023/05/10 08:32:28;;;;;;;1.83;1.25;;;12.60;99.90;;;;;;5055693;28;20036;-63
2023/05/10 08:34:53;;;;;;;1.40;1.20;;;12.70;99.90;;;;;;5054392;28;20044;-63
2023/05/10 08:37:19;;;;;;;1.90;1.13;;;12.70;99.90;;;;;;5055579;28;20443;-65
2023/05/10 08:39:47;;;;;;;1.88;1.27;;;12.70;99.90;;;;;;5055253;28;20082;-63
2023/05/10 08:42:18;;;;;;;1.20;0.98;;;12.70;99.90;;;;;;5055384;28;20043;-63
2023/05/10 08:44:48;;;;;;;2.10;1.10;;;13.20;99.90;;;;;;5055388;28;20412;-63
2023/05/10 08:47:16;;;;;;;1.23;0.82;;;13.40;99.90;;;;;;5055119;28;20041;-63
2023/05/10 08:49:43;;;;;;;1.42;1.13;;;12.70;99.90;;;;;;5055377;28;20043;-63
2023/05/10 08:52:12;;;;;;;3.13;1.15;;;12.70;99.90;;;;;;5055682;28;20530;-65
2023/05/10 08:54:38;;;;;;;1.20;1.10;;;12.50;99.90;;;;;;5055066;28;20119;-63
2023/05/10 08:57:04;;;;;;;1.42;1.10;;;12.60;99.90;;;;;;5055145;28;20044;-63
2023/05/10 08:59:30;;;;;;;2.90;1.10;;;13.00;99.90;;;;;;5055185;28;20515;-63
2023/05/10 09:01:58;;;;;;;1.38;0.98;;;12.90;99.90;;;;;;5054720;28;20044;-63
2023/05/10 09:04:24;;;;;;;2.38;1.20;;;12.80;99.90;;;;;;5053417;28;20064;-63
2023/05/10 09:06:50;;;;;;;1.40;1.17;;;13.20;99.90;;;;;;5054633;28;20045;-63
2023/05/10 09:09:17;;;;;;;2.08;1.42;;;12.90;99.90;;;;;;5054956;28;20048;-63
2023/05/10 09:11:44;;;;;;;2.85;1.30;;;12.90;99.90;;;;;;5054824;28;20492;-63
2023/05/10 09:14:12;;;;;;;1.95;1.42;;;12.80;99.90;;;;;;5054533;28;20045;-63
2023/05/10 09:16:37;;;;;;;1.95;1.50;;;12.80;99.90;;;;;;5054825;28;20060;-64
2023/05/10 09:19:03;;;;;;;1.52;1.08;;;12.70;99.90;;;;;;5054481;28;20408;-65
2023/05/10 09:21:30;;;;;;;2.38;1.27;;;12.70;99.90;;;;;;5054630;28;20087;-65
2023/05/10 09:23:56;;;;;;;2.30;1.38;;;12.80;99.90;;;;;;5054658;28;20385;-63
2023/05/10 09:26:24;;;;;;;2.10;1.25;;;13.10;99.90;;;;;;5054559;28;20033;-63
2023/05/10 09:28:55;;;;;;;1.45;1.00;;;12.90;99.90;;;;;;5054626;28;20037;-63
2023/05/10 09:31:21;;;;;;;1.45;1.08;;;13.00;99.90;;;;;;5054226;28;20044;-63
2023/05/10 09:33:47;;;;;;;3.47;1.70;;;13.90;99.90;;;;;;5054145;28;20191;-63
2023/05/10 09:36:14;;;;;;;1.70;1.17;;;13.10;99.90;;;;;;5054576;28;20465;-63
2023/05/10 09:38:51;;;;;;;2.63;1.58;;;13.20;99.90;;;;;;5054141;28;20037;-63
2023/05/10 09:41:23;;;;;;;1.90;1.35;;;13.20;99.90;;;;;;5054375;28;20424;-63
2023/05/10 09:43:49;;;;;;;2.65;1.58;;;14.20;99.90;;;;;;5054107;28;20096;-63
2023/05/10 09:46:16;;;;;;;1.55;1.15;;;13.40;99.90;;;;;;5054330;28;20108;-63
2023/05/10 09:48:44;;;;;;;2.58;1.40;;;13.40;99.90;;;;;;5054284;28;20036;-63
2023/05/10 09:51:10;;;;;;;2.67;1.40;;;13.50;99.90;;;;;;5054330;28;20037;-63
2023/05/10 09:53:36;;;;;;;1.95;1.10;;;13.20;99.90;;;;;;5052985;28;20095;-64
2023/05/10 09:56:01;;;;;;;1.50;1.10;;;13.50;99.90;;;;;;5054240;28;20484;-63
2023/05/10 09:58:27;;;;;;;2.10;1.40;;;;;;;;;;5052588;28;20052;-63
2023/05/10 10:00:54;;;;;;;1.83;0.95;;;13.70;99.90;;;;;;5053769;28;20037;-63
2023/05/10 10:03:21;;;;;;;1.73;0.95;;;13.60;99.90;;;;;;5053819;28;20068;-64
2023/05/10 10:05:48;;;;;;;2.17;1.20;;;13.60;99.90;;;;;;5053825;28;20246;-63
2023/05/10 10:08:14;;;;;;;1.73;0.95;;;13.60;99.90;;;;;;5053425;28;20033;-62
2023/05/10 10:10:40;;;;;;;2.05;0.98;;;13.60;99.90;;;;;;5054028;28;20429;-63
2023/05/10 10:13:07;;;;;;;1.85;1.20;;;14.60;99.90;;;;;;5053946;28;20503;-64
2023/05/10 10:15:34;;;;;;;2.42;1.40;;;13.50;99.90;;;;;;5053887;28;20115;-63
2023/05/10 10:18:00;;;;;;;2.28;1.45;;;13.60;99.90;;;;;;5035737;28;20098;-63
2023/05/10 10:20:27;;;;;;;1.80;1.20;;;13.70;99.90;;;;;;5053697;28;20049;-63
2023/05/10 10:22:52;;;;;;;2.47;1.30;;;13.90;99.90;;;;;;5052163;28;20049;-64
2023/05/10 10:25:20;;;;;;;1.30;1.00;;;14.10;99.90;;;;;;5053273;28;20044;-63
2023/05/10 10:27:51;;;;;;;3.58;1.25;;;14.90;99.90;;;;;;5053591;28;20049;-67
2023/05/10 10:30:36;;;;;;;1.92;1.15;;;14.10;99.90;;;;;;5053306;28;20077;-63
2023/05/10 10:33:46;;;;;;;1.90;1.27;;;14.10;99.90;;;;;;5053435;28;20044;-65
2023/05/10 10:36:12;;;;;;;1.80;1.13;;;14.00;99.90;;;;;;5050046;28;20808;-63
2023/05/10 10:38:59;;;;;;;2.58;1.70;;;13.90;99.90;;;;;;5053448;28;20070;-67
2023/05/10 10:41:35;;;;;;;2.53;1.52;;;14.60;99.90;;;;;;5053046;28;20041;-63
2023/05/10 10:44:36;;;;;;;2.85;1.45;;;13.70;99.90;;;;;;5053308;28;20037;-63
2023/05/10 10:47:11;;;;;;;2.80;1.63;;;13.60;99.90;;;;;;5053303;28;20052;-63
2023/05/10 10:49:40;;;;;;;3.90;2.33;;;13.60;99.90;;;;;;5052962;28;20099;-63
2023/05/10 10:52:33;;;;;;;3.90;1.90;;;13.60;99.90;;;;;;5053201;28;20449;-63
2023/05/10 10:55:26;;;;;;;2.45;1.80;;;13.70;99.90;;;;;;5051703;28;20408;-62
2023/05/10 10:58:00;;;;;;;2.88;1.67;;;13.70;99.90;;;;;;5053162;28;20125;-62
2023/05/10 11:00:30;;;;;;;3.17;1.80;;;13.70;99.90;;;;;;5053094;28;20128;-62
2023/05/10 11:03:08;;;;;;;4.13;1.95;;;13.70;99.90;;;;;;5052717;28;20029;-62
2023/05/10 11:05:41;;;;;;;4.03;1.58;;;13.70;99.90;;;;;;5053012;28;20390;-63
2023/05/10 11:08:09;;;;;;;2.70;1.60;;;13.80;99.90;;;;;;5052721;28;20051;-63
2023/05/10 11:10:34;;;;;;;2.90;1.80;;;13.90;99.90;;;;;;5053062;28;20034;-62
2023/05/10 11:13:02;;;;;;;3.65;2.08;;;14.00;99.90;;;;;;5052741;28;20041;-63
2023/05/10 11:15:39;;;;;;;2.72;1.75;;;14.60;99.90;;;;;;5052957;28;20082;-62
2023/05/10 11:18:25;;;;;;;2.85;1.80;;;14.20;99.90;;;;;;5053360;28;20040;-62
2023/05/10 11:20:59;;;;;;;3.33;1.98;;;14.30;99.90;;;;;;5057151;28;20047;-63
2023/05/10 11:23:47;;;;;;;4.00;2.20;;;14.30;99.90;;;;;;5057059;28;20048;-63
2023/05/10 11:26:13;;;;;;;5.78;1.50;;;14.30;99.90;;;;;;5056884;28;20116;-63
2023/05/10 11:28:46;;;;;;;3.35;2.00;;;14.70;99.90;;;;;;5056933;28;20393;-63
2023/05/10 11:31:16;;;;;;;2.92;1.90;;;14.30;99.90;;;;;;5056869;28;20119;-62
2023/05/10 11:33:46;;;;;;;4.82;2.40;;;14.20;99.90;;;;;;5056671;28;20029;-63
2023/05/10 11:36:15;;;;;;;5.22;2.25;;;14.20;99.90;;;;;;5056705;28;20037;-63
2023/05/10 11:38:40;;;;;;;4.35;1.95;;;14.00;99.90;;;;;;5056298;28;20079;-63
2023/05/10 11:41:09;;;;;;;5.40;2.05;;;14.30;99.90;;;;;;5056286;28;20037;-63
2023/05/10 11:43:36;;;;;;;5.00;2.10;;;14.30;99.90;;;;;;5056598;28;20400;-63
2023/05/10 11:46:02;;;;;;;5.63;1.95;;;14.20;99.90;;;;;;5056556;28;20037;-63
2023/05/10 11:48:29;;;;;;;3.45;2.33;;;14.30;99.90;;;;;;5056146;28;20043;-65
2023/05/10 11:50:56;;;;;;;3.40;1.88;;;14.20;99.90;;;;;;5056427;28;20425;-63
2023/05/10 11:53:22;;;;;;;3.90;2.15;;;14.20;99.90;;;;;;5054899;28;20068;-66
2023/05/10 11:55:48;;;;;;;5.75;2.60;;;14.30;99.90;;;;;;5056252;28;20041;-63
2023/05/10 11:58:14;;;;;;;6.20;2.15;;;14.40;99.90;;;;;;5056352;28;20042;-63
2023/05/10 12:00:39;;;;;;;2.90;1.80;;;14.50;99.90;;;;;;5056257;28;20044;-63
2023/05/10 12:03:05;;;;;;;3.80;1.95;;;14.60;99.90;;;;;;5056152;28;20480;-63
2023/05/10 12:05:35;;;;;;;5.25;2.25;;;14.80;99.90;;;;;;5056077;28;20045;-63
2023/05/10 12:08:14;;;;;;;3.42;2.15;;;14.80;99.90;;;;;;5056215;28;20419;-63
2023/05/10 12:10:40;;;;;;;3.17;1.90;;;14.90;99.90;;;;;;5055825;28;20420;-63
2023/05/10 12:13:10;;;;;;;3.53;1.88;;;14.80;99.90;;;;;;5056050;28;20036;-63
2023/05/10 12:15:35;;;;;;;5.83;2.53;;;14.70;99.90;;;;;;5056034;28;20037;-63
2023/05/10 12:18:02;;;;;;;3.40;1.77;;;14.80;99.90;;;;;;5055723;28;20052;-63
2023/05/10 12:20:28;;;;;;;5.32;2.17;;;14.80;99.90;;;;;;5055971;28;20504;-63
2023/05/10 12:22:56;;;;;;;2.38;1.60;;;14.70;99.90;;;;;;5054625;28;20041;-63
2023/05/10 12:25:23;;;;;;;2.97;1.83;;;14.60;99.90;;;;;;5055835;28;20045;-63
2023/05/10 12:27:53;;;;;;;3.70;1.95;;;14.30;99.90;;;;;;5055752;28;20044;-63
2023/05/10 12:30:23;;;;;;;5.97;2.17;;;14.50;99.90;;;;;;5054805;28;20094;-63
2023/05/10 12:32:49;;;;;;;5.07;2.10;;;14.40;99.90;;;;;;5055723;28;20037;-63
2023/05/10 12:35:15;;;;;;;3.70;2.22;;;14.20;99.90;;;;;;5055580;28;20422;-63
2023/05/10 12:37:43;;;;;;;3.47;1.92;;;14.30;99.90;;;;;;5054343;28;20037;-63
2023/05/10 12:40:10;;;;;;;4.43;1.58;;;14.30;99.90;;;;;;5055576;28;20110;-63
2023/05/10 12:42:38;;;;;;;4.30;2.03;;;14.30;99.90;;;;;;5055504;28;20369;-63
2023/05/10 12:45:05;;;;;;;2.70;1.65;;;14.30;99.90;;;;;;5053994;28;20436;-63
2023/05/10 12:47:32;;;;;;;2.95;1.73;;;14.30;99.90;;;;;;5055339;28;20087;-63
2023/05/10 12:49:59;;;;;;;4.78;2.22;;;14.40;99.90;;;;;;5055308;28;20041;-63
2023/05/10 12:52:25;;;;;;;3.63;2.05;;;13.90;99.90;;;;;;5055358;28;20110;-63